Time;durP1;ratioP1;P1;durP2;ratioP2;P2;SDS_P1;SDS_P2;PMS_P1;PMS_P2;Temp;Humidity;BMP_temperature;BMP_pressure;BME280_temperature;BME280_humidity;BME280_pressure;Samples;Min_cycle;Max_cycle;Signal;HPM_P1;HPM_P2
2022/12/12 00:00:51;;;;;;;4.45;2.50;;;;;;;19.60;46.86;95777.84;10495689;28;20056;-46
2022/12/12 00:06:11;;;;;;;4.45;2.45;;;;;;;19.58;46.44;95769.28;10509627;28;20044;-46
2022/12/12 00:11:30;;;;;;;3.92;2.10;;;;;;;19.56;46.54;95776.94;10496082;28;20044;-46
2022/12/12 00:16:50;;;;;;;4.53;2.40;;;;;;;19.54;46.46;95780.03;10496233;28;20048;-46
2022/12/12 00:22:09;;;;;;;3.38;2.17;;;;;;;19.53;46.60;95774.97;10497877;28;20053;-47
2022/12/12 00:27:31;;;;;;;4.25;2.20;;;;;;;19.51;46.47;95785.34;10504485;28;20079;-49
2022/12/12 00:32:50;;;;;;;3.10;2.08;;;;;;;19.49;46.36;95785.69;10504395;28;20380;-47
2022/12/12 00:38:09;;;;;;;3.88;2.38;;;;;;;19.47;46.30;95779.84;10503530;28;20064;-46
2022/12/12 00:43:29;;;;;;;5.38;2.60;;;;;;;19.44;46.26;95777.81;10503949;28;20055;-49
2022/12/12 00:48:49;;;;;;;2.47;2.17;;;;;;;19.43;46.22;95789.78;10503106;28;20060;-46
2022/12/12 00:54:09;;;;;;;3.13;2.00;;;;;;;19.42;46.09;95788.19;10488723;28;20049;-46
2022/12/12 00:59:29;;;;;;;2.92;2.08;;;;;;;19.39;46.11;95793.53;10499759;28;20057;-49
2022/12/12 01:04:48;;;;;;;3.50;2.13;;;;;;;19.37;46.22;95807.38;10503178;28;20071;-48
2022/12/12 01:10:09;;;;;;;4.07;2.17;;;;;;;19.35;46.07;95796.91;10502501;28;20056;-46
2022/12/12 01:15:28;;;;;;;3.78;2.25;;;;;;;19.34;46.21;95791.84;10502625;28;20049;-46
2022/12/12 01:20:48;;;;;;;3.10;2.05;;;;;;;19.32;46.15;95799.50;10502248;28;20491;-45
2022/12/12 01:26:14;;;;;;;4.90;2.10;;;;;;;19.31;46.10;95797.94;10501774;28;20048;-46
2022/12/12 01:31:34;;;;;;;2.88;1.90;;;;;;;19.29;45.95;95800.22;10501800;28;20052;-46
2022/12/12 01:36:53;;;;;;;2.25;1.95;;;;;;;19.28;45.75;95798.63;10501712;28;20045;-47
2022/12/12 01:42:15;;;;;;;2.63;1.70;;;;;;;19.26;45.88;95792.78;10500901;28;20064;-48
2022/12/12 01:47:34;;;;;;;4.68;2.35;;;;;;;19.24;45.89;95808.56;10499154;28;20048;-46
2022/12/12 01:52:54;;;;;;;4.10;2.15;;;;;;;19.22;45.77;95803.50;10509646;28;20079;-48
2022/12/12 01:58:14;;;;;;;4.07;2.10;;;;;;;19.20;45.85;95796.88;10514048;28;20496;-47
2022/12/12 02:03:34;;;;;;;3.13;2.10;;;;;;;19.19;45.91;95803.41;10498982;28;20041;-45
2022/12/12 02:08:57;;;;;;;3.17;2.00;;;;;;;19.17;45.90;95803.78;10490477;28;20048;-46
2022/12/12 02:14:29;;;;;;;3.08;2.08;;;;;;;19.15;45.81;95793.31;10514116;28;20075;-47
2022/12/12 02:20:13;;;;;;;1.92;1.73;;;;;;;19.11;45.74;95789.72;10500119;28;20052;-48
2022/12/12 02:25:50;;;;;;;2.17;1.70;;;;;;;19.12;45.75;95793.22;10499303;28;20101;-48
2022/12/12 02:31:31;;;;;;;2.83;1.92;;;;;;;19.09;45.75;95792.00;10484065;28;20057;-48
2022/12/12 02:36:50;;;;;;;2.25;2.05;;;;;;;19.08;45.68;95797.72;10498891;28;20098;-47
2022/12/12 02:42:27;;;;;;;4.00;1.80;;;;;;;19.06;45.54;95806.16;10500015;28;20057;-46
2022/12/12 02:47:50;;;;;;;2.08;1.65;;;;;;;19.04;45.85;95800.31;10483424;28;20056;-46
2022/12/12 02:53:10;;;;;;;3.00;1.88;;;;;;;19.02;45.73;95797.19;10498966;28;20416;-47
2022/12/12 02:58:31;;;;;;;2.80;1.80;;;;;;;19.01;45.71;95805.63;10498730;28;20061;-47
2022/12/12 03:09:59;;;;;;;2.13;1.42;;;;;;;18.96;45.46;95810.16;10497981;28;20044;-45
2022/12/12 03:15:23;;;;;;;1.95;1.55;;;;;;;18.97;45.61;95802.81;10493518;28;20048;-47
2022/12/12 03:20:48;;;;;;;2.63;1.80;;;;;;;18.93;45.49;95808.16;10482651;28;20049;-46
2022/12/12 03:26:13;;;;;;;1.88;1.63;;;;;;;18.92;45.62;95797.69;10510620;28;20403;-45
2022/12/12 03:31:37;;;;;;;2.13;1.92;;;;;;;18.90;45.61;95795.34;10482692;28;20048;-46
2022/12/12 03:37:05;;;;;;;2.70;1.60;;;;;;;18.89;45.57;95799.16;10481287;28;20424;-46
2022/12/12 03:42:42;;;;;;;2.05;1.80;;;;;;;18.87;45.23;95812.19;10454179;28;20045;-46
2022/12/12 03:48:07;;;;;;;2.08;1.88;;;;;;;18.86;45.59;95805.25;10454252;28;20057;-45
2022/12/12 03:53:44;;;;;;;2.97;1.60;;;;;;;18.84;45.43;95809.44;10454826;28;20098;-47
2022/12/12 03:59:09;;;;;;;2.17;1.70;;;;;;;18.81;45.51;95810.88;10466775;28;20044;-47
2022/12/12 04:04:34;;;;;;;1.70;1.60;;;;;;;18.80;45.31;95801.22;10467760;28;20451;-46
2022/12/12 04:15:47;;;;;;;1.67;1.57;;;;;;;18.76;45.38;95805.72;10454764;28;20045;-47
2022/12/12 04:26:58;;;;;;;1.50;1.40;;;;;;;18.73;45.33;95795.59;10465923;28;20045;-47
2022/12/12 04:32:31;;;;;;;2.47;1.80;;;;;;;18.72;45.21;95804.81;10454647;28;20053;-46
2022/12/12 04:37:53;;;;;;;1.50;1.40;;;;;;;18.69;45.19;95803.56;10467451;28;20041;-45
2022/12/12 04:43:16;;;;;;;1.80;1.50;;;;;;;18.68;45.30;95815.50;10484778;28;20454;-46
2022/12/12 04:48:41;;;;;;;2.08;1.50;;;;;;;18.67;45.13;95813.16;10479711;28;20053;-48
2022/12/12 04:54:09;;;;;;;1.60;1.40;;;;;;;18.64;45.19;95814.63;10473489;28;20381;-47
2022/12/12 04:59:28;;;;;;;2.03;1.60;;;;;;;18.64;45.28;95827.31;10493496;28;20048;-46
2022/12/12 05:05:10;;;;;;;1.98;1.60;;;;;;;18.62;44.91;95816.06;10495097;28;20102;-47
2022/12/12 05:10:29;;;;;;;1.60;1.50;;;;;;;18.60;45.22;95821.03;10482740;28;20056;-48
2022/12/12 05:15:50;;;;;;;1.58;1.48;;;;;;;18.59;45.26;95825.66;10487422;28;20056;-47
2022/12/12 05:21:09;;;;;;;2.08;1.65;;;;;;;18.58;45.24;95835.66;10472298;28;20049;-47
2022/12/12 05:26:31;;;;;;;1.90;1.70;;;;;;;18.58;45.36;95832.16;10499373;28;20056;-47
2022/12/12 05:31:50;;;;;;;1.50;1.30;;;;;;;18.59;45.38;95833.72;10499391;28;20090;-51
2022/12/12 05:37:09;;;;;;;1.95;1.60;;;;;;;18.59;45.58;95825.66;10498949;28;20075;-47
2022/12/12 05:42:32;;;;;;;1.88;1.60;;;;;;;18.59;45.36;95836.44;10500229;28;20057;-48
2022/12/12 05:47:51;;;;;;;1.67;1.30;;;;;;;18.61;45.92;95842.28;10500658;28;20098;-45
2022/12/12 05:53:11;;;;;;;1.45;1.35;;;;;;;18.62;45.98;95841.16;10500076;28;20590;-46
2022/12/12 05:58:31;;;;;;;18.55;4.95;;;;;;;18.64;45.82;95847.00;10463622;28;20068;-46
2022/12/12 06:03:50;;;;;;;12.10;3.92;;;;;;;18.66;45.20;95838.53;10489613;28;20044;-46
2022/12/12 06:09:10;;;;;;;9.88;3.30;;;;;;;18.68;45.85;95842.50;10500454;28;20106;-48
2022/12/12 06:14:29;;;;;;;11.75;3.72;;;;;;;18.71;45.74;95841.78;10484626;28;20060;-48
2022/12/12 06:19:49;;;;;;;11.40;3.60;;;;;;;18.74;45.94;95843.03;10499421;28;20443;-47
2022/12/12 06:25:09;;;;;;;8.02;2.83;;;;;;;18.76;45.86;95849.66;10499439;28;20491;-48
2022/12/12 06:30:28;;;;;;;7.38;2.88;;;;;;;18.80;45.89;95843.59;10499391;28;20488;-46
2022/12/12 06:35:59;;;;;;;9.38;3.30;;;;;;;18.83;45.84;95845.63;10499121;28;20056;-49
2022/12/12 06:41:22;;;;;;;8.52;3.13;;;;;;;18.86;45.81;95855.75;10494330;28;20106;-48
2022/12/12 06:46:42;;;;;;;8.30;3.17;;;;;;;18.89;45.92;95858.50;10503493;28;20044;-49
2022/12/12 06:52:01;;;;;;;8.75;2.90;;;;;;;18.95;45.83;95859.06;10499326;28;20109;-49
2022/12/12 06:57:21;;;;;;;7.07;3.05;;;;;;;18.97;46.12;95859.50;10511754;28;20048;-47
2022/12/12 07:02:40;;;;;;;7.63;2.90;;;;;;;19.01;46.25;95857.69;10498354;28;20450;-48
2022/12/12 07:08:01;;;;;;;5.97;2.90;;;;;;;19.05;46.28;95866.69;10498417;28;20052;-47
2022/12/12 07:13:21;;;;;;;8.35;3.10;;;;;;;19.08;45.98;95873.31;10498003;28;20138;-50
2022/12/12 07:18:40;;;;;;;5.75;2.72;;;;;;;19.12;46.12;95877.69;10508100;28;20043;-46
2022/12/12 07:24:00;;;;;;;6.32;3.00;;;;;;;19.15;46.25;95882.41;10494151;28;20049;-49
2022/12/12 07:29:19;;;;;;;7.18;3.20;;;;;;;19.20;46.17;95880.59;10496977;28;20044;-49
2022/12/12 07:34:38;;;;;;;8.10;3.10;;;;;;;19.23;46.17;95877.19;10493576;28;20053;-49
2022/12/12 07:39:58;;;;;;;8.75;2.85;;;;;;;19.27;46.11;95883.50;10496867;28;20063;-47
2022/12/12 07:45:17;;;;;;;5.40;2.75;;;;;;;19.30;45.77;95883.56;10496747;28;20139;-49
2022/12/12 07:50:38;;;;;;;4.78;2.80;;;;;;;19.34;45.78;95889.06;10477525;28;20052;-49
2022/12/12 07:55:57;;;;;;;7.65;2.50;;;;;;;19.39;46.16;95896.16;10494052;28;20048;-48
2022/12/12 08:01:20;;;;;;;7.25;2.80;;;;;;;19.43;45.86;95891.63;10508544;28;20052;-48
2022/12/12 08:06:39;;;;;;;6.65;2.45;;;;;;;19.47;45.86;95906.78;10491852;28;20044;-48
2022/12/12 08:11:59;;;;;;;5.50;2.95;;;;;;;19.52;46.00;95917.34;10492315;28;20110;-49
2022/12/12 08:17:18;;;;;;;3.38;2.40;;;;;;;19.55;45.89;95919.34;10494840;28;20107;-47
2022/12/12 08:22:37;;;;;;;3.63;2.25;;;;;;;19.60;45.70;95912.94;10508806;28;20036;-49
2022/12/12 08:27:56;;;;;;;4.50;2.20;;;;;;;19.64;45.80;95929.22;10496325;28;20080;-47
2022/12/12 08:33:16;;;;;;;4.75;2.30;;;;;;;19.67;45.91;95929.31;10480644;28;20045;-49
2022/12/12 08:38:36;;;;;;;4.88;2.47;;;;;;;19.71;45.77;95926.72;10495786;28;20064;-48
2022/12/12 08:43:55;;;;;;;4.78;2.10;;;;;;;19.75;45.92;95924.91;10498909;28;20399;-50
2022/12/12 08:49:14;;;;;;;3.95;2.10;;;;;;;19.77;45.74;95933.47;10515321;28;20476;-50
2022/12/12 08:54:35;;;;;;;3.60;2.40;;;;;;;19.82;45.55;95938.63;10502549;28;20111;-50
2022/12/12 08:59:55;;;;;;;4.65;2.00;;;;;;;19.85;45.72;95940.63;10515440;28;20052;-50
2022/12/12 09:05:15;;;;;;;3.05;2.20;;;;;;;19.89;45.29;95938.00;10499648;28;20045;-52
2022/12/12 09:10:34;;;;;;;2.75;2.00;;;;;;;19.92;45.41;95945.44;10516028;28;20040;-50
2022/12/12 09:15:53;;;;;;;3.35;2.00;;;;;;;19.96;45.51;95949.03;10500968;28;20076;-49
2022/12/12 09:21:13;;;;;;;4.10;2.00;;;;;;;20.00;45.35;95949.13;10502174;28;20053;-49
2022/12/12 09:26:33;;;;;;;3.53;1.98;;;;;;;20.04;45.13;95952.69;10493701;28;20044;-48
2022/12/12 09:31:52;;;;;;;3.08;1.83;;;;;;;20.08;45.14;95956.25;10500874;28;20053;-47
2022/12/12 09:37:11;;;;;;;3.03;2.05;;;;;;;20.13;44.66;95956.00;10500723;28;20040;-49
2022/12/12 09:42:32;;;;;;;3.22;2.10;;;;;;;20.15;44.36;95951.81;10498513;28;20059;-47
2022/12/12 09:47:57;;;;;;;2.47;1.92;;;;;;;20.20;44.03;95953.47;10484996;28;20052;-47
2022/12/12 09:53:19;;;;;;;3.25;1.70;;;;;;;20.21;44.11;95956.97;10485349;28;20053;-47
2022/12/12 09:58:50;;;;;;;2.20;1.83;;;;;;;20.24;43.83;95957.06;10487645;28;20086;-48
2022/12/12 10:04:31;;;;;;;3.20;1.63;;;;;;;20.26;43.95;95957.47;10514234;28;20036;-48
2022/12/12 10:10:20;;;;;;;2.88;1.60;;;;;;;20.30;43.94;95961.06;10500199;28;20052;-49
2022/12/12 10:15:44;;;;;;;2.80;1.90;;;;;;;20.32;44.00;95958.78;10487975;28;20052;-47
2022/12/12 10:21:06;;;;;;;3.38;1.92;;;;;;;20.37;44.00;95949.66;10471250;28;20053;-49
2022/12/12 10:26:28;;;;;;;2.47;1.73;;;;;;;20.39;43.89;95952.78;10490766;28;20496;-47
2022/12/12 10:32:00;;;;;;;3.03;1.77;;;;;;;20.43;43.89;95955.59;10512366;28;20089;-47
2022/12/12 10:37:37;;;;;;;2.97;1.83;;;;;;;20.45;43.82;95961.44;10497122;28;20045;-47
2022/12/12 10:43:21;;;;;;;2.08;1.70;;;;;;;20.48;43.89;95966.13;10496371;28;20040;-48
2022/12/12 10:48:40;;;;;;;2.42;1.80;;;;;;;20.51;43.94;95968.13;10493017;28;20338;-49
2022/12/12 10:54:03;;;;;;;2.05;1.85;;;;;;;20.54;43.97;95973.63;10481963;28;20053;-45
2022/12/12 10:59:23;;;;;;;2.15;1.60;;;;;;;20.58;44.07;95970.22;10489412;28;20083;-49
2022/12/12 11:04:43;;;;;;;2.50;1.77;;;;;;;20.60;43.63;95967.97;10507683;28;20051;-47
2022/12/12 11:10:17;;;;;;;2.47;1.70;;;;;;;20.62;43.56;95968.41;10498609;28;20056;-47
2022/12/12 11:15:49;;;;;;;1.77;1.58;;;;;;;20.64;43.78;95966.94;10505471;28;20049;-47
2022/12/12 11:21:10;;;;;;;1.92;1.55;;;;;;;20.67;43.55;95965.44;10499476;28;20040;-50
2022/12/12 11:26:39;;;;;;;3.63;2.10;;;;;;;20.67;42.91;95963.50;10497501;28;20067;-47
2022/12/12 11:31:59;;;;;;;13.07;4.78;;;;;;;20.68;43.06;95970.50;10523041;28;20040;-50
2022/12/12 11:37:21;;;;;;;8.98;3.80;;;;;;;20.70;44.26;95976.34;10494902;28;20051;-50
2022/12/12 11:42:41;;;;;;;10.30;4.10;;;;;;;20.72;44.24;95982.19;10496139;28;20424;-49
2022/12/12 11:48:00;;;;;;;10.55;4.05;;;;;;;20.74;45.17;95984.56;10497097;28;20044;-48
2022/12/12 11:53:21;;;;;;;11.18;4.97;;;;;;;20.76;46.10;95984.19;10496127;28;20040;-48
2022/12/12 11:58:44;;;;;;;7.90;3.60;;;;;;;20.78;46.72;95971.91;10496711;28;20056;-47
2022/12/12 12:04:07;;;;;;;8.45;3.35;;;;;;;20.80;47.34;95983.16;10481347;28;20052;-48
2022/12/12 12:09:49;;;;;;;9.20;3.03;;;;;;;20.80;47.49;95987.78;10509802;28;20040;-49
2022/12/12 12:15:27;;;;;;;6.85;3.10;;;;;;;20.81;46.99;95989.34;10495974;28;20048;-47
2022/12/12 12:21:08;;;;;;;5.38;2.63;;;;;;;20.79;46.74;95972.66;10488154;28;20044;-49
2022/12/12 12:26:37;;;;;;;4.75;2.70;;;;;;;20.77;46.54;95985.78;10460315;28;20048;-50
2022/12/12 12:32:53;;;;;;;4.63;2.60;;;;;;;20.76;46.59;96003.13;10488555;28;20123;-49
2022/12/12 12:38:21;;;;;;;4.20;2.30;;;;;;;20.75;46.33;95999.66;10488616;28;20392;-48
2022/12/12 12:44:20;;;;;;;4.50;2.13;;;;;;;20.73;46.07;95999.22;10494376;28;20150;-47
2022/12/12 12:50:16;;;;;;;7.22;2.17;;;;;;;20.72;45.78;96009.25;10463918;28;20492;-46
2022/12/12 12:55:46;;;;;;;3.67;2.05;;;;;;;20.71;45.54;96010.38;10490789;28;20040;-49
2022/12/12 13:01:11;;;;;;;4.18;2.00;;;;;;;20.70;45.77;96006.13;10490121;28;20057;-47
2022/12/12 13:06:41;;;;;;;4.22;2.03;;;;;;;20.71;45.76;96012.31;10476737;28;20052;-50
2022/12/12 13:12:14;;;;;;;2.60;1.77;;;;;;;20.69;45.83;96015.38;10464572;28;20049;-46
2022/12/12 13:18:00;;;;;;;3.70;1.80;;;;;;;20.68;45.29;96019.22;10453090;28;20467;-48
2022/12/12 13:23:46;;;;;;;3.20;1.90;;;;;;;20.66;44.94;96028.81;10458131;28;20057;-47
2022/12/12 13:29:23;;;;;;;;;;;;;;;20.65;45.03;96036.16;10460417;28;20060;-48
2022/12/12 13:34:50;;;;;;;2.63;1.75;;;;;;;20.64;45.53;96036.50;10465764;28;20394;-48
2022/12/12 13:40:30;;;;;;;2.85;1.73;;;;;;;20.62;44.83;96036.88;10456319;28;20057;-46
2022/12/12 13:45:49;;;;;;;2.97;1.90;;;;;;;20.60;45.28;96044.56;10464725;28;20055;-47
2022/12/12 13:51:27;;;;;;;3.58;2.05;;;;;;;20.59;44.94;96051.09;10499027;28;20039;-50
2022/12/12 13:57:04;;;;;;;4.70;1.80;;;;;;;20.58;44.98;96057.63;10496782;28;20048;-48
2022/12/12 14:02:31;;;;;;;2.03;1.55;;;;;;;20.57;45.15;96066.06;10481103;28;20099;-47
2022/12/12 14:07:54;;;;;;;2.47;1.67;;;;;;;20.57;44.81;96071.50;10495039;28;20119;-48
2022/12/12 14:13:34;;;;;;;1.70;1.60;;;;;;;20.55;44.00;96074.53;10465876;28;20051;-49
2022/12/12 14:19:03;;;;;;;2.92;1.70;;;;;;;20.51;43.79;96077.16;10463627;28;20059;-48
2022/12/12 14:24:32;;;;;;;3.15;1.80;;;;;;;20.49;43.54;96090.22;10451524;28;20404;-48
2022/12/12 14:29:51;;;;;;;;;;;;;;;20.48;42.96;96093.28;10478152;28;20040;-49
2022/12/12 14:35:19;;;;;;;2.20;1.70;;;;;;;20.44;43.56;96093.19;10473771;28;19928;-49
2022/12/12 14:40:44;;;;;;;2.10;1.60;;;;;;;20.43;43.49;96096.25;10471158;28;20045;-50
2022/12/12 14:46:04;;;;;;;2.33;1.83;;;;;;;20.41;43.64;96099.31;10483756;28;20067;-50
2022/12/12 14:51:29;;;;;;;2.13;1.25;;;;;;;20.40;43.81;96100.41;10495540;28;20068;-46
2022/12/12 14:56:54;;;;;;;1.75;1.50;;;;;;;20.38;43.59;96108.09;10495404;28;20048;-48
2022/12/12 15:02:17;;;;;;;2.22;1.45;;;;;;;20.36;43.71;96104.97;10498109;28;20052;-48
2022/12/12 15:07:37;;;;;;;1.88;1.50;;;;;;;20.34;43.60;96110.69;10496873;28;20052;-50
2022/12/12 15:12:57;;;;;;;1.73;1.40;;;;;;;20.34;43.87;96118.81;10498200;28;20415;-46
2022/12/12 15:18:19;;;;;;;2.97;1.63;;;;;;;20.31;43.70;96130.34;10497913;28;20057;-50
2022/12/12 15:23:40;;;;;;;2.83;1.48;;;;;;;20.29;43.74;96129.91;10482844;28;20453;-47
2022/12/12 15:29:00;;;;;;;2.28;1.88;;;;;;;20.18;42.75;96134.22;10490985;28;20056;-46
2022/12/12 15:34:40;;;;;;;2.53;1.80;;;;;;;20.20;43.31;96140.06;10488432;28;20044;-48
2022/12/12 15:40:06;;;;;;;2.60;1.90;;;;;;;20.21;43.06;96135.44;10496587;28;20507;-48
2022/12/12 15:45:31;;;;;;;3.28;2.13;;;;;;;20.19;43.19;96146.63;10467981;28;20132;-48
2022/12/12 15:50:57;;;;;;;3.08;1.98;;;;;;;20.18;42.92;96136.94;10460560;28;20418;-47
2022/12/12 15:56:20;;;;;;;3.08;1.80;;;;;;;20.17;43.13;96146.19;10445393;28;20049;-47
2022/12/12 16:01:40;;;;;;;3.08;1.98;;;;;;;20.13;42.94;96137.16;10461692;28;20045;-49
2022/12/12 16:07:14;;;;;;;3.25;1.80;;;;;;;20.13;43.23;96145.28;10481193;28;20526;-46
2022/12/12 16:12:57;;;;;;;2.50;1.73;;;;;;;20.10;43.42;96135.16;10496801;28;20056;-46
2022/12/12 16:18:20;;;;;;;2.30;1.90;;;;;;;20.08;43.75;96135.50;10487996;28;20049;-48
2022/12/12 16:23:40;;;;;;;2.30;1.70;;;;;;;20.07;43.88;96139.34;10477226;28;20049;-47
2022/12/12 16:29:00;;;;;;;2.13;1.67;;;;;;;20.05;43.87;96143.50;10494566;28;20063;-49
2022/12/12 16:34:19;;;;;;;2.03;1.70;;;;;;;20.04;43.72;96150.84;10494255;28;20094;-49
2022/12/12 16:39:40;;;;;;;1.52;1.40;;;;;;;20.03;43.53;96151.19;10480457;28;20048;-49
2022/12/12 16:45:00;;;;;;;2.03;1.52;;;;;;;20.01;43.58;96153.44;10495817;28;20056;-47
2022/12/12 16:50:19;;;;;;;1.92;1.73;;;;;;;19.98;43.55;96154.13;10474921;28;20493;-48
2022/12/12 16:55:42;;;;;;;1.88;1.65;;;;;;;19.98;43.59;96154.13;10461412;28;20067;-48
2022/12/12 17:01:02;;;;;;;2.03;1.60;;;;;;;19.94;43.56;96156.72;10476434;28;20380;-49
2022/12/12 17:06:24;;;;;;;1.60;1.50;;;;;;;19.92;43.58;96157.06;10485878;28;20500;-46
2022/12/12 17:11:44;;;;;;;3.00;1.50;;;;;;;19.91;43.51;96163.59;10482879;28;20052;-48
2022/12/12 17:17:04;;;;;;;1.85;1.55;;;;;;;19.90;43.55;96164.72;10484200;28;20534;-50
2022/12/12 17:22:23;;;;;;;2.15;1.67;;;;;;;19.87;43.67;96165.41;10502145;28;20633;-49
2022/12/12 17:27:42;;;;;;;1.67;1.48;;;;;;;19.86;43.80;96165.78;10489987;28;20411;-50
2022/12/12 17:33:02;;;;;;;3.25;1.73;;;;;;;19.84;43.66;96170.72;10501712;28;20079;-51
2022/12/12 17:38:22;;;;;;;2.00;1.63;;;;;;;19.83;43.74;96169.13;10501470;28;20482;-50
2022/12/12 17:43:41;;;;;;;1.70;1.45;;;;;;;19.81;43.70;96177.59;10501611;28;20044;-49
2022/12/12 17:49:02;;;;;;;2.78;1.60;;;;;;;19.79;43.97;96177.13;10501735;28;20068;-47
2022/12/12 17:54:21;;;;;;;1.33;1.23;;;;;;;19.77;44.22;96176.69;10501464;28;20040;-48
2022/12/12 17:59:41;;;;;;;1.50;1.40;;;;;;;19.76;44.43;96191.34;10501001;28;20067;-47
2022/12/12 18:05:02;;;;;;;2.95;1.70;;;;;;;19.73;44.50;96192.00;10500870;28;20056;-49
2022/12/12 18:10:21;;;;;;;1.33;1.23;;;;;;;19.72;44.59;96199.34;10500197;28;20063;-50
2022/12/12 18:15:43;;;;;;;2.03;1.58;;;;;;;19.70;44.42;96214.28;10498648;28;20049;-49
2022/12/12 18:21:14;;;;;;;2.30;1.50;;;;;;;19.68;44.31;96217.34;10497256;28;20064;-48
2022/12/12 18:26:34;;;;;;;1.65;1.50;;;;;;;19.67;44.42;96221.16;10495022;28;20051;-46
2022/12/12 18:31:54;;;;;;;1.50;1.40;;;;;;;19.65;44.20;96228.03;10477605;28;20130;-47
2022/12/12 18:37:15;;;;;;;3.75;1.60;;;;;;;19.63;44.37;96233.75;10466501;28;20056;-46
2022/12/12 18:42:35;;;;;;;2.13;1.63;;;;;;;19.62;44.52;96234.09;10499267;28;20064;-46
2022/12/12 18:47:54;;;;;;;2.05;1.17;;;;;;;19.60;44.51;96242.56;10477321;28;20052;-46
2022/12/12 18:53:14;;;;;;;1.48;1.38;;;;;;;19.59;44.80;96248.28;10497560;28;20056;-46
2022/12/12 18:58:35;;;;;;;2.80;1.17;;;;;;;19.58;44.89;96260.22;10498024;28;20515;-46
2022/12/12 19:03:55;;;;;;;3.15;1.40;;;;;;;19.56;44.85;96258.66;10511783;28;20040;-49
2022/12/12 19:09:17;;;;;;;1.50;1.30;;;;;;;19.54;44.79;96249.28;10497654;28;20496;-45
2022/12/12 19:14:37;;;;;;;2.10;1.48;;;;;;;19.51;44.72;96255.38;10497216;28;20049;-47
2022/12/12 19:19:58;;;;;;;1.58;1.23;;;;;;;19.50;44.54;96259.19;10497139;28;20057;-50
2022/12/12 19:25:17;;;;;;;1.30;1.20;;;;;;;19.47;44.49;96260.66;10497261;28;20044;-48
2022/12/12 19:30:40;;;;;;;1.85;1.33;;;;;;;19.46;44.55;96264.47;10496577;28;20068;-47
2022/12/12 19:36:00;;;;;;;2.55;1.50;;;;;;;19.46;44.52;96274.50;10493886;28;20097;-47
2022/12/12 19:41:21;;;;;;;1.63;1.35;;;;;;;19.43;44.63;96269.78;10496507;28;20094;-48
2022/12/12 19:46:42;;;;;;;1.75;1.10;;;;;;;19.41;44.75;96278.22;10484998;28;20132;-48
2022/12/12 19:52:02;;;;;;;3.97;1.42;;;;;;;19.39;44.78;96283.16;10509394;28;20036;-47
2022/12/12 19:57:25;;;;;;;1.30;1.15;;;;;;;19.39;44.77;96290.50;10495909;28;20097;-48
2022/12/12 20:02:44;;;;;;;1.60;1.40;;;;;;;19.37;44.93;96290.81;10496145;28;20075;-49
2022/12/12 20:08:04;;;;;;;3.38;1.48;;;;;;;19.35;44.85;96295.78;10509136;28;20044;-48
2022/12/12 20:13:24;;;;;;;1.50;1.40;;;;;;;19.34;45.08;96311.16;10496224;28;20052;-47
2022/12/12 20:18:46;;;;;;;1.60;1.38;;;;;;;19.33;44.99;96314.22;10494216;28;20060;-50
2022/12/12 20:24:06;;;;;;;1.70;1.58;;;;;;;19.32;45.11;96318.03;10495975;28;20055;-49
2022/12/12 20:29:26;;;;;;;2.28;1.60;;;;;;;19.30;44.91;96310.25;10506305;28;20045;-47
2022/12/12 20:34:46;;;;;;;1.92;1.48;;;;;;;19.28;45.05;96312.50;10492751;28;20040;-49
2022/12/12 20:40:06;;;;;;;1.60;1.50;;;;;;;19.26;45.09;96314.75;10496138;28;20052;-47
2022/12/12 20:45:26;;;;;;;1.60;1.50;;;;;;;19.26;44.97;96319.38;10503342;28;20136;-47
2022/12/12 20:50:45;;;;;;;1.40;1.30;;;;;;;19.25;45.12;96318.59;10503107;28;20426;-49
2022/12/12 20:56:10;;;;;;;1.77;1.38;;;;;;;19.23;45.27;96320.03;10502589;28;20060;-49
2022/12/12 21:01:34;;;;;;;1.45;1.35;;;;;;;19.22;45.33;96323.88;10502285;28;20053;-50
2022/12/12 21:06:54;;;;;;;1.77;1.48;;;;;;;19.20;45.18;96309.91;10498906;28;20110;-50
2022/12/12 21:12:14;;;;;;;3.90;1.60;;;;;;;19.19;45.23;96313.72;10503349;28;20049;-47
2022/12/12 21:17:33;;;;;;;3.35;1.98;;;;;;;19.18;45.11;96312.94;10503134;28;20059;-47
2022/12/12 21:22:53;;;;;;;2.35;1.83;;;;;;;19.15;45.27;96319.81;10504595;28;20040;-50
2022/12/12 21:28:12;;;;;;;4.43;2.05;;;;;;;19.13;45.22;96319.34;10508186;28;20036;-48
2022/12/12 21:33:34;;;;;;;4.47;2.25;;;;;;;19.12;45.28;96331.25;10500941;28;20483;-47
2022/12/12 21:38:55;;;;;;;5.45;2.20;;;;;;;19.11;45.38;96342.38;10498153;28;20113;-50
2022/12/12 21:44:15;;;;;;;5.38;2.30;;;;;;;19.10;45.26;96335.41;10501742;28;20124;-47
2022/12/12 21:49:35;;;;;;;3.05;2.17;;;;;;;19.09;45.32;96331.13;10500918;28;20504;-47
2022/12/12 21:54:54;;;;;;;4.50;2.47;;;;;;;19.08;45.22;96340.34;10500519;28;20068;-47
2022/12/12 22:00:13;;;;;;;5.75;2.75;;;;;;;19.05;45.34;96330.22;10501114;28;20048;-49
2022/12/12 22:05:34;;;;;;;3.20;2.20;;;;;;;19.04;45.36;96334.03;10488097;28;20094;-49
2022/12/12 22:10:54;;;;;;;5.05;2.40;;;;;;;19.02;45.36;96337.06;10496069;28;20057;-50
2022/12/12 22:16:18;;;;;;;3.53;2.17;;;;;;;19.01;45.28;96343.56;10482087;28;20040;-46
2022/12/12 22:21:37;;;;;;;3.92;2.22;;;;;;;18.99;45.32;96335.03;10508188;28;20048;-48
2022/12/12 22:26:56;;;;;;;3.75;2.30;;;;;;;18.98;45.29;96340.78;10490406;28;20044;-49
2022/12/12 22:32:16;;;;;;;2.97;2.17;;;;;;;18.95;45.06;96343.00;10513843;28;20044;-47
2022/12/12 22:37:36;;;;;;;2.85;2.03;;;;;;;18.95;45.27;96344.91;10487018;28;20052;-48
2022/12/12 22:42:57;;;;;;;2.88;1.88;;;;;;;18.93;45.11;96344.44;10499194;28;20060;-47
2022/12/12 22:48:17;;;;;;;2.97;2.05;;;;;;;18.92;45.14;96348.28;10499549;28;20416;-47
2022/12/12 22:53:37;;;;;;;3.00;1.80;;;;;;;18.90;44.97;96345.91;10492460;28;20399;-49
2022/12/12 22:58:56;;;;;;;2.70;1.67;;;;;;;18.88;45.01;96348.16;10498905;28;20048;-48
2022/12/12 23:04:16;;;;;;;2.58;1.90;;;;;;;18.87;44.79;96334.97;10497874;28;20473;-48
2022/12/12 23:09:35;;;;;;;2.78;1.80;;;;;;;18.84;44.80;96339.13;10491152;28;20105;-49
2022/12/12 23:14:55;;;;;;;3.15;1.85;;;;;;;18.83;44.79;96339.47;10497789;28;20057;-47
2022/12/12 23:20:14;;;;;;;3.80;1.90;;;;;;;18.81;44.64;96330.91;10496633;28;20064;-47
2022/12/12 23:25:35;;;;;;;2.65;1.90;;;;;;;18.79;44.68;96328.50;10511575;28;20052;-48
2022/12/12 23:30:56;;;;;;;2.75;1.88;;;;;;;18.78;44.70;96337.72;10485555;28;20063;-49
2022/12/12 23:36:15;;;;;;;2.78;1.85;;;;;;;18.75;44.68;96339.16;10497546;28;20063;-47
2022/12/12 23:41:35;;;;;;;3.00;2.05;;;;;;;18.74;44.54;96326.03;10496658;28;20079;-47
2022/12/12 23:46:57;;;;;;;1.92;1.70;;;;;;;18.73;44.42;96330.59;10496850;28;20059;-48
2022/12/12 23:52:16;;;;;;;2.03;1.60;;;;;;;18.71;44.42;96327.44;10496931;28;20071;-47
2022/12/12 23:57:36;;;;;;;2.08;1.70;;;;;;;18.70;44.45;96322.38;10510023;28;20048;-47
